Time;durP1;ratioP1;P1;durP2;ratioP2;P2;SDS_P1;SDS_P2;PMS_P1;PMS_P2;Temp;Humidity;BMP_temperature;BMP_pressure;BME280_temperature;BME280_humidity;BME280_pressure;Samples;Min_cycle;Max_cycle;Signal;HPM_P1;HPM_P2
2022/04/08 00:03:06;;;;;;;6.20;2.83;;;8.30;69.00;;;;;;5070851;28;20203;-88
2022/04/08 00:05:32;;;;;;;7.03;1.87;;;8.30;67.20;;;;;;5043002;28;20199;-83
2022/04/08 00:07:58;;;;;;;6.63;2.10;;;8.20;69.60;;;;;;5048959;28;20177;-80
2022/04/08 00:10:24;;;;;;;6.87;2.67;;;8.20;69.60;;;;;;5066801;28;20169;-87
2022/04/08 00:12:53;;;;;;;7.47;2.13;;;8.20;69.70;;;;;;5065606;28;20176;-83
2022/04/08 00:15:19;;;;;;;6.93;2.33;;;8.30;68.20;;;;;;5056014;28;20692;-79
2022/04/08 00:17:45;;;;;;;4.50;1.73;;;8.30;68.10;;;;;;5057238;28;20180;-82
2022/04/08 00:20:11;;;;;;;5.37;1.90;;;8.30;67.20;;;;;;5038406;28;20181;-86
2022/04/08 00:22:41;;;;;;;5.73;1.80;;;8.30;66.90;;;;;;5055807;28;20169;-87
2022/04/08 00:25:09;;;;;;;5.47;1.67;;;8.30;67.90;;;;;;5055251;28;20212;-87
2022/04/08 00:27:35;;;;;;;6.87;1.83;;;8.30;68.80;;;;;;5074303;28;20207;-88
2022/04/08 00:30:00;;;;;;;5.83;1.97;;;8.30;71.20;;;;;;5079320;28;20179;-87
2022/04/08 00:32:29;;;;;;;6.50;1.87;;;8.40;68.40;;;;;;5077438;28;20157;-88
2022/04/08 00:34:54;;;;;;;4.00;1.87;;;8.40;67.20;;;;;;5076878;28;20184;-87
2022/04/08 00:37:20;;;;;;;5.73;1.70;;;8.40;67.10;;;;;;5077258;28;20180;-84
2022/04/08 00:39:46;;;;;;;3.87;1.77;;;8.50;67.50;;;;;;5077171;28;20168;-82
2022/04/08 00:42:14;;;;;;;6.20;2.33;;;8.30;68.80;;;;;;5076634;28;20173;-83
2022/04/08 00:44:40;;;;;;;6.03;2.13;;;8.30;67.80;;;;;;5084493;28;20254;-77
2022/04/08 00:47:06;;;;;;;3.80;2.00;;;8.40;65.70;;;;;;5091802;28;20175;-76
2022/04/08 00:49:38;;;;;;;5.30;2.17;;;8.30;67.30;;;;;;5090570;28;20169;-82
2022/04/08 00:52:04;;;;;;;5.87;1.87;;;8.40;65.50;;;;;;5076083;28;20168;-87
2022/04/08 00:54:30;;;;;;;4.30;2.00;;;8.30;64.20;;;;;;5078697;28;20536;-82
2022/04/08 00:56:59;;;;;;;5.37;1.90;;;8.40;63.80;;;;;;5085005;28;20168;-87
2022/04/08 00:59:26;;;;;;;6.97;2.13;;;8.20;65.80;;;;;;5095112;28;20176;-75
2022/04/08 01:01:52;;;;;;;4.47;2.33;;;8.30;65.50;;;;;;5098789;28;20185;-76
2022/04/08 01:04:18;;;;;;;6.83;2.40;;;8.30;64.20;;;;;;5093574;28;20180;-76
2022/04/08 01:06:47;;;;;;;5.93;2.20;;;8.30;63.30;;;;;;5090194;28;20165;-76
2022/04/08 01:09:25;;;;;;;3.07;1.73;;;8.30;63.90;;;;;;5067139;28;20271;-87
2022/04/08 01:11:54;;;;;;;5.50;2.10;;;8.30;63.80;;;;;;5079277;28;20260;-83
2022/04/08 01:14:20;;;;;;;4.73;2.30;;;8.30;63.00;;;;;;5078040;28;20338;-77
2022/04/08 01:16:45;;;;;;;5.73;1.90;;;8.20;65.50;;;;;;5077944;28;20200;-88
2022/04/08 01:19:11;;;;;;;6.17;2.27;;;8.20;66.80;;;;;;5079573;28;20196;-78
2022/04/08 01:21:37;;;;;;;6.73;2.10;;;8.20;65.90;;;;;;5093627;28;20179;-77
2022/04/08 01:24:03;;;;;;;5.70;2.30;;;8.20;65.70;;;;;;5094514;28;20211;-76
2022/04/08 01:26:29;;;;;;;6.13;2.17;;;8.20;65.80;;;;;;5083301;28;20606;-86
2022/04/08 01:28:56;;;;;;;4.33;2.00;;;8.20;65.50;;;;;;5059424;28;20180;-83
2022/04/08 01:31:24;;;;;;;5.33;2.17;;;8.20;66.80;;;;;;5060579;28;20165;-83
2022/04/08 01:33:55;;;;;;;5.40;2.67;;;8.20;66.80;;;;;;5060221;28;20203;-84
2022/04/08 01:36:27;;;;;;;6.73;2.60;;;8.20;67.40;;;;;;5058246;28;20271;-87
2022/04/08 01:38:53;;;;;;;4.40;2.30;;;8.20;68.20;;;;;;5058197;28;20169;-80
2022/04/08 01:41:20;;;;;;;4.63;2.17;;;8.30;67.40;;;;;;5058490;28;20165;-79
2022/04/08 01:43:46;;;;;;;8.70;2.17;;;8.20;66.50;;;;;;5064626;28;20184;-76
2022/04/08 01:46:12;;;;;;;3.10;2.10;;;8.20;68.50;;;;;;5073592;28;20184;-76
2022/04/08 01:48:38;;;;;;;4.50;2.10;;;8.20;68.00;;;;;;5071993;28;20172;-84
2022/04/08 01:51:05;;;;;;;5.93;2.47;;;8.10;67.40;;;;;;5061241;28;20164;-88
2022/04/08 01:53:52;;;;;;;3.93;2.17;;;8.20;67.30;;;;;;5058578;28;20157;-78
2022/04/08 01:56:17;;;;;;;6.73;2.60;;;8.10;67.00;;;;;;5062006;28;20188;-75
2022/04/08 01:58:43;;;;;;;6.23;2.73;;;8.10;67.80;;;;;;5058429;28;20626;-86
2022/04/08 02:01:08;;;;;;;5.80;2.70;;;8.10;66.20;;;;;;5060570;28;20173;-79
2022/04/08 02:03:35;;;;;;;4.30;2.27;;;8.00;68.40;;;;;;5060822;28;20197;-88
2022/04/08 02:06:01;;;;;;;6.40;2.33;;;8.10;67.80;;;;;;5062433;28;20181;-82
2022/04/08 02:08:26;;;;;;;4.80;2.50;;;8.10;67.30;;;;;;5058737;28;20180;-78
2022/04/08 02:10:53;;;;;;;6.40;2.50;;;8.20;66.10;;;;;;5076363;28;20196;-77
2022/04/08 02:13:20;;;;;;;4.83;2.73;;;8.20;67.20;;;;;;5076102;28;20196;-76
2022/04/08 02:15:46;;;;;;;5.40;2.37;;;8.20;67.50;;;;;;5076781;28;20169;-74
2022/04/08 02:18:12;;;;;;;4.67;2.73;;;8.20;67.90;;;;;;5074054;28;20207;-75
2022/04/08 02:20:44;;;;;;;7.17;2.87;;;8.20;68.50;;;;;;5071029;28;20154;-85
2022/04/08 02:23:14;;;;;;;3.90;2.50;;;8.20;67.80;;;;;;5065429;28;20169;-76
2022/04/08 02:25:40;;;;;;;8.07;2.93;;;8.10;70.30;;;;;;5056827;28;20214;-82
2022/04/08 02:28:08;;;;;;;7.70;2.80;;;8.10;71.90;;;;;;5071767;28;20247;-88
2022/04/08 02:30:37;;;;;;;5.63;2.30;;;8.10;72.20;;;;;;5077642;28;20259;-86
2022/04/08 02:33:04;;;;;;;6.97;3.00;;;8.10;70.20;;;;;;5076850;28;20746;-87
2022/04/08 02:35:32;;;;;;;5.83;2.90;;;8.20;70.70;;;;;;5076963;28;20184;-82
2022/04/08 02:37:58;;;;;;;4.90;2.67;;;8.10;71.60;;;;;;5087521;28;20165;-76
2022/04/08 02:40:25;;;;;;;6.77;2.57;;;7.90;74.50;;;;;;5069128;28;20180;-81
2022/04/08 02:42:50;;;;;;;4.77;2.30;;;7.90;76.80;;;;;;5077146;28;20252;-85
2022/04/08 02:45:17;;;;;;;12.37;2.87;;;7.90;77.00;;;;;;5076880;28;20247;-88
2022/04/08 02:47:45;;;;;;;7.07;3.30;;;8.00;76.80;;;;;;5085034;28;20168;-77
2022/04/08 02:50:12;;;;;;;8.63;3.13;;;7.90;76.30;;;;;;5093516;28;20167;-77
2022/04/08 02:52:39;;;;;;;9.03;3.83;;;8.10;74.30;;;;;;5098335;28;20157;-74
2022/04/08 02:55:05;;;;;;;5.13;2.60;;;8.00;72.70;;;;;;5096022;28;20261;-77
2022/04/08 02:57:31;;;;;;;5.37;2.90;;;7.90;75.60;;;;;;5088264;28;20169;-76
2022/04/08 03:00:44;;;;;;;6.57;2.77;;;7.90;75.90;;;;;;5072806;28;20177;-77
2022/04/08 03:03:16;;;;;;;5.83;3.20;;;7.90;77.10;;;;;;5064735;28;20167;-82
2022/04/08 03:05:46;;;;;;;7.10;2.97;;;7.90;74.90;;;;;;5058731;28;20176;-76
2022/04/08 03:08:14;;;;;;;9.03;3.00;;;7.90;75.70;;;;;;5067779;28;20263;-87
2022/04/08 03:10:39;;;;;;;5.83;3.00;;;7.90;76.70;;;;;;5076382;28;20635;-76
2022/04/08 03:13:08;;;;;;;7.23;2.90;;;7.80;77.40;;;;;;5072109;28;20169;-87
2022/04/08 03:15:40;;;;;;;4.70;3.03;;;7.80;77.40;;;;;;5056851;28;20637;-88
2022/04/08 03:18:06;;;;;;;6.23;2.90;;;7.90;76.40;;;;;;5055816;28;20587;-82
2022/04/08 03:20:32;;;;;;;7.00;3.10;;;7.70;77.90;;;;;;5056354;28;20250;-78
2022/04/08 03:22:58;;;;;;;10.07;3.13;;;7.80;75.90;;;;;;5055519;28;20169;-87
2022/04/08 03:25:23;;;;;;;7.67;3.30;;;7.80;74.50;;;;;;5056727;28;20200;-81
2022/04/08 03:27:49;;;;;;;5.80;2.73;;;7.80;73.70;;;;;;5039136;28;20180;-88
2022/04/08 03:30:15;;;;;;;5.87;2.60;;;7.80;76.40;;;;;;5056691;28;20177;-87
2022/04/08 03:32:41;;;;;;;9.67;3.70;;;7.80;74.40;;;;;;5056173;28;20203;-87
2022/04/08 03:35:07;;;;;;;8.20;3.00;;;7.90;71.90;;;;;;5056961;28;20184;-88
2022/04/08 03:37:33;;;;;;;7.60;2.87;;;7.80;72.60;;;;;;5056710;28;20161;-87
2022/04/08 03:39:58;;;;;;;7.10;3.10;;;7.70;73.00;;;;;;5058542;28;20184;-86
2022/04/08 03:42:26;;;;;;;7.60;3.10;;;7.70;75.00;;;;;;5066441;28;20164;-84
2022/04/08 03:44:51;;;;;;;6.50;3.03;;;7.70;75.10;;;;;;5072034;28;20242;-76
2022/04/08 03:47:20;;;;;;;9.33;3.03;;;7.70;76.00;;;;;;5072613;28;20165;-79
2022/04/08 03:49:46;;;;;;;8.90;2.67;;;7.60;76.00;;;;;;5066053;28;20168;-84
2022/04/08 03:52:13;;;;;;;6.90;2.87;;;7.60;76.10;;;;;;5061068;28;20164;-88
2022/04/08 03:54:43;;;;;;;7.50;2.80;;;7.70;73.10;;;;;;5057060;28;20165;-87
2022/04/08 03:57:09;;;;;;;9.07;3.67;;;7.80;70.40;;;;;;5040034;28;20184;-87
2022/04/08 03:59:34;;;;;;;6.63;3.07;;;7.70;69.30;;;;;;5056389;28;20172;-86
2022/04/08 04:02:01;;;;;;;5.90;2.57;;;7.70;68.90;;;;;;5056068;28;20252;-87
2022/04/08 04:04:27;;;;;;;8.67;3.03;;;7.70;67.50;;;;;;5039028;28;20683;-89
2022/04/08 04:06:53;;;;;;;6.50;2.90;;;7.60;69.00;;;;;;5054891;28;20226;-88
2022/04/08 04:09:19;;;;;;;6.47;2.73;;;7.60;70.50;;;;;;5055328;28;20169;-88
2022/04/08 04:11:44;;;;;;;8.70;3.00;;;7.60;69.10;;;;;;5055707;28;20524;-87
2022/04/08 04:14:10;;;;;;;6.13;3.00;;;7.70;68.00;;;;;;5054884;28;20188;-88
2022/04/08 04:16:37;;;;;;;5.13;2.87;;;7.70;67.60;;;;;;5055294;28;20169;-89
2022/04/08 04:19:02;;;;;;;5.77;2.77;;;7.70;64.40;;;;;;5056927;28;20167;-83
2022/04/08 04:21:28;;;;;;;6.00;2.73;;;7.60;64.30;;;;;;5057231;28;20176;-77
2022/04/08 04:23:54;;;;;;;6.10;2.97;;;7.40;67.70;;;;;;5060467;28;20197;-87
2022/04/08 04:26:19;;;;;;;6.67;3.30;;;7.50;69.60;;;;;;5065988;28;20169;-78
2022/04/08 04:28:45;;;;;;;6.67;3.27;;;7.50;68.90;;;;;;5066638;28;20165;-88
2022/04/08 04:31:10;;;;;;;6.70;2.80;;;7.50;69.70;;;;;;5057690;28;20163;-84
2022/04/08 04:33:37;;;;;;;7.60;2.77;;;7.50;69.70;;;;;;5055597;28;20165;-88
2022/04/08 04:36:05;;;;;;;6.33;2.93;;;7.50;67.80;;;;;;5039276;28;20180;-76
2022/04/08 04:38:32;;;;;;;6.13;2.83;;;7.50;66.70;;;;;;5055216;28;20711;-79
2022/04/08 04:40:57;;;;;;;10.27;3.20;;;7.60;66.30;;;;;;5038532;28;20177;-89
2022/04/08 04:43:23;;;;;;;7.80;3.13;;;7.60;64.30;;;;;;5056563;28;20637;-87
2022/04/08 04:45:49;;;;;;;5.37;2.30;;;7.50;63.80;;;;;;5055189;28;20188;-88
2022/04/08 04:48:14;;;;;;;5.20;2.63;;;7.40;67.90;;;;;;5056682;28;20241;-89
2022/04/08 04:50:40;;;;;;;7.10;2.57;;;7.40;69.10;;;;;;5055607;28;20181;-88
2022/04/08 04:53:06;;;;;;;5.87;2.57;;;7.50;68.70;;;;;;5062178;28;20197;-80
2022/04/08 04:55:32;;;;;;;9.90;2.57;;;7.50;67.80;;;;;;5063232;28;20192;-81
2022/04/08 04:57:58;;;;;;;6.43;2.20;;;7.40;69.90;;;;;;5066393;28;20164;-86
2022/04/08 05:00:24;;;;;;;5.07;2.63;;;7.40;68.70;;;;;;5057103;28;20177;-75
2022/04/08 05:02:49;;;;;;;3.60;2.43;;;7.40;70.60;;;;;;5071342;28;20188;-87
2022/04/08 05:05:15;;;;;;;8.77;2.70;;;7.40;71.90;;;;;;5056756;28;20205;-89
2022/04/08 05:07:41;;;;;;;6.23;2.50;;;7.40;71.20;;;;;;5038891;28;20174;-88
2022/04/08 05:10:09;;;;;;;7.30;2.87;;;7.40;70.60;;;;;;5057020;28;20169;-76
2022/04/08 05:12:38;;;;;;;6.70;3.07;;;7.30;72.10;;;;;;5059432;28;20229;-82
2022/04/08 05:15:12;;;;;;;6.80;2.47;;;7.40;71.30;;;;;;5052986;28;20204;-77
2022/04/08 05:17:48;;;;;;;6.13;2.60;;;7.50;68.30;;;;;;5067110;28;20234;-87
2022/04/08 05:20:15;;;;;;;4.70;2.60;;;7.50;67.00;;;;;;5055522;28;20211;-87
2022/04/08 05:22:41;;;;;;;7.90;2.50;;;7.50;66.50;;;;;;5054819;28;20173;-80
2022/04/08 05:25:07;;;;;;;6.60;2.50;;;7.70;64.10;;;;;;5054976;28;20279;-87
2022/04/08 05:27:43;;;;;;;7.13;3.17;;;7.60;63.50;;;;;;5054448;28;20161;-88
2022/04/08 05:30:13;;;;;;;4.77;2.40;;;7.50;65.10;;;;;;5055236;28;20169;-80
2022/04/08 05:32:42;;;;;;;5.93;2.50;;;7.60;63.20;;;;;;5055806;28;20179;-83
2022/04/08 05:35:08;;;;;;;6.17;2.40;;;7.60;60.80;;;;;;5057859;28;20181;-84
2022/04/08 05:37:42;;;;;;;8.03;2.70;;;7.70;58.80;;;;;;5056626;28;20173;-81
2022/04/08 05:40:20;;;;;;;6.57;2.60;;;7.70;59.60;;;;;;5056051;28;20177;-83
2022/04/08 05:42:46;;;;;;;5.87;2.40;;;7.70;60.00;;;;;;5053432;28;20194;-77
2022/04/08 05:45:17;;;;;;;8.00;2.90;;;7.50;60.00;;;;;;5074576;28;20231;-82
2022/04/08 05:47:43;;;;;;;5.80;2.70;;;7.60;60.20;;;;;;5078274;28;20168;-86
2022/04/08 05:50:10;;;;;;;6.87;2.20;;;7.50;60.70;;;;;;5089711;28;20172;-80
2022/04/08 05:52:37;;;;;;;6.23;2.17;;;7.40;61.20;;;;;;5099548;28;20141;-76
2022/04/08 05:55:09;;;;;;;6.93;2.47;;;7.60;61.00;;;;;;5097160;28;20165;-79
2022/04/08 05:57:41;;;;;;;5.83;2.50;;;7.60;58.50;;;;;;5099235;28;20157;-77
2022/04/08 06:00:17;;;;;;;5.70;2.53;;;7.60;55.40;;;;;;5091082;28;20160;-83
2022/04/08 06:02:47;;;;;;;7.70;3.00;;;7.90;50.00;;;;;;5085844;28;20152;-85
2022/04/08 06:05:43;;;;;;;8.03;3.10;;;7.90;48.70;;;;;;5081372;28;20192;-88
2022/04/08 06:08:09;;;;;;;7.93;2.67;;;8.00;48.80;;;;;;5081536;28;20171;-82
2022/04/08 06:10:36;;;;;;;6.90;2.83;;;8.00;49.60;;;;;;5080964;28;20153;-85
2022/04/08 06:13:02;;;;;;;7.03;2.47;;;7.90;48.20;;;;;;5078990;28;20527;-86
2022/04/08 06:15:28;;;;;;;9.53;2.57;;;8.00;47.30;;;;;;5080291;28;20572;-87
2022/04/08 06:17:55;;;;;;;7.40;2.50;;;8.00;48.20;;;;;;5079965;28;20199;-83
2022/04/08 06:20:22;;;;;;;6.97;2.60;;;7.90;52.50;;;;;;5086274;28;20198;-77
2022/04/08 06:22:48;;;;;;;8.17;2.63;;;7.90;53.70;;;;;;5089689;28;20211;-85
2022/04/08 06:25:19;;;;;;;8.23;2.53;;;7.80;54.40;;;;;;5096323;28;20184;-79
2022/04/08 06:27:53;;;;;;;8.80;2.63;;;7.80;55.50;;;;;;5080393;28;20206;-76
2022/04/08 06:30:21;;;;;;;8.63;2.77;;;7.80;56.40;;;;;;5098435;28;20164;-78
2022/04/08 06:32:47;;;;;;;10.90;3.37;;;7.80;56.00;;;;;;5097343;28;20179;-76
2022/04/08 06:35:13;;;;;;;6.90;2.57;;;7.90;55.10;;;;;;5094643;28;20172;-79
2022/04/08 06:37:49;;;;;;;7.97;2.47;;;7.80;54.40;;;;;;5095606;28;20184;-75
2022/04/08 06:40:15;;;;;;;7.27;2.50;;;7.90;54.00;;;;;;5095526;28;20156;-76
2022/04/08 06:42:42;;;;;;;8.67;2.57;;;8.00;53.40;;;;;;5074671;28;20164;-80
2022/04/08 06:45:17;;;;;;;7.47;2.37;;;8.10;52.20;;;;;;5092219;28;20218;-77
2022/04/08 06:47:55;;;;;;;6.80;2.50;;;8.30;46.70;;;;;;5088110;28;20180;-76
2022/04/08 06:50:23;;;;;;;9.13;2.80;;;8.20;49.00;;;;;;5074184;28;20252;-75
2022/04/08 06:53:00;;;;;;;8.97;2.83;;;8.20;50.30;;;;;;5071435;28;20154;-85
2022/04/08 06:55:32;;;;;;;7.80;2.80;;;8.10;48.40;;;;;;5072879;28;20184;-83
2022/04/08 06:58:03;;;;;;;8.50;3.30;;;8.10;52.10;;;;;;5071021;28;20192;-77
2022/04/08 07:00:31;;;;;;;9.30;3.20;;;8.10;52.60;;;;;;5073583;28;20169;-79
2022/04/08 07:02:57;;;;;;;7.40;2.47;;;8.10;51.90;;;;;;5073787;28;20197;-80
2022/04/08 07:05:29;;;;;;;8.20;2.40;;;8.10;52.00;;;;;;5065429;28;20206;-77
2022/04/08 07:07:55;;;;;;;9.97;2.93;;;8.00;50.40;;;;;;5066268;28;20165;-86
2022/04/08 07:10:24;;;;;;;7.43;2.90;;;8.00;50.00;;;;;;5063780;28;20216;-82
2022/04/08 07:12:49;;;;;;;8.07;3.07;;;8.00;50.60;;;;;;5059836;28;20176;-81
2022/04/08 07:15:15;;;;;;;7.63;2.70;;;8.10;51.30;;;;;;5073922;28;20695;-78
2022/04/08 07:17:41;;;;;;;6.93;3.30;;;8.10;51.80;;;;;;5064408;28;20181;-86
2022/04/08 07:20:08;;;;;;;7.17;2.80;;;8.10;51.00;;;;;;5058937;28;20567;-78
2022/04/08 07:22:34;;;;;;;8.13;2.50;;;8.00;50.90;;;;;;5058637;28;20214;-83
2022/04/08 07:24:59;;;;;;;9.47;2.90;;;8.00;49.50;;;;;;5060189;28;20212;-77
2022/04/08 07:27:28;;;;;;;7.73;2.57;;;8.10;48.50;;;;;;5064017;28;20217;-77
2022/04/08 07:29:54;;;;;;;5.57;2.80;;;8.30;45.40;;;;;;5072296;28;20196;-78
2022/04/08 07:32:22;;;;;;;6.37;3.07;;;8.10;44.80;;;;;;5065181;28;20165;-83
2022/04/08 07:34:49;;;;;;;9.10;2.80;;;8.20;46.70;;;;;;5061285;28;20176;-76
2022/04/08 07:37:37;;;;;;;7.53;2.10;;;8.20;45.90;;;;;;5056551;28;20195;-82
2022/04/08 07:40:08;;;;;;;6.97;2.40;;;8.50;38.60;;;;;;5055149;28;20177;-77
2022/04/08 07:42:35;;;;;;;5.53;3.00;;;8.60;34.40;;;;;;5055720;28;20169;-87
2022/04/08 07:45:09;;;;;;;6.87;2.40;;;8.60;36.90;;;;;;5057465;28;20219;-86
2022/04/08 07:47:35;;;;;;;9.73;2.70;;;8.50;35.70;;;;;;5057574;28;20258;-87
2022/04/08 07:50:04;;;;;;;9.97;2.97;;;8.70;33.70;;;;;;5081373;28;20164;-80
2022/04/08 07:52:29;;;;;;;6.83;3.10;;;8.80;31.90;;;;;;5083893;28;20208;-80
2022/04/08 07:54:55;;;;;;;9.27;3.07;;;8.80;29.60;;;;;;5082862;28;20171;-87
2022/04/08 07:57:22;;;;;;;8.73;2.83;;;8.70;32.00;;;;;;5076681;28;20164;-83
2022/04/08 07:59:55;;;;;;;9.77;2.90;;;8.60;34.30;;;;;;5075047;28;20203;-79
2022/04/08 08:02:21;;;;;;;6.90;3.17;;;8.60;38.40;;;;;;5074720;28;20537;-80
2022/04/08 08:04:47;;;;;;;8.20;2.57;;;8.60;39.30;;;;;;5075160;28;20687;-83
2022/04/08 08:07:13;;;;;;;5.67;2.33;;;8.60;35.40;;;;;;5051553;28;20165;-85
2022/04/08 08:09:39;;;;;;;8.63;2.63;;;8.80;33.40;;;;;;5053328;28;20176;-77
2022/04/08 08:12:04;;;;;;;5.87;2.27;;;8.90;29.00;;;;;;5054791;28;20231;-86
2022/04/08 08:14:30;;;;;;;9.53;2.80;;;9.00;24.90;;;;;;5037618;28;20228;-85
2022/04/08 08:16:56;;;;;;;10.07;2.97;;;9.00;26.50;;;;;;5057949;28;20153;-81
2022/04/08 08:19:22;;;;;;;9.47;2.97;;;9.10;25.40;;;;;;5053821;28;20294;-86
2022/04/08 08:21:48;;;;;;;13.60;2.50;;;9.10;20.40;;;;;;5039268;28;20633;-76
2022/04/08 08:24:13;;;;;;;7.13;2.70;;;9.30;15.70;;;;;;5055778;28;20284;-87
2022/04/08 08:26:42;;;;;;;8.17;2.67;;;9.30;8.90;;;;;;5055531;28;20228;-82
2022/04/08 08:29:08;;;;;;;5.17;2.10;;;9.20;15.40;;;;;;5054812;28;20181;-87
2022/04/08 08:31:33;;;;;;;8.33;2.70;;;9.30;8.90;;;;;;5056289;28;20697;-86
2022/04/08 08:33:59;;;;;;;8.80;2.90;;;9.60;1.00;;;;;;5036852;28;20275;-83
2022/04/08 08:36:25;;;;;;;6.90;2.50;;;9.60;5.40;;;;;;5055034;28;20185;-86
2022/04/08 08:38:51;;;;;;;8.23;2.40;;;9.60;1.00;;;;;;5055873;28;20157;-84
2022/04/08 08:41:20;;;;;;;10.40;3.10;;;9.50;1.00;;;;;;5039488;28;20610;-82
2022/04/08 08:43:47;;;;;;;8.90;2.97;;;9.40;6.10;;;;;;5037959;28;20590;-86
2022/04/08 08:46:16;;;;;;;6.83;3.03;;;9.20;1.60;;;;;;5056761;28;20560;-88
2022/04/08 08:48:44;;;;;;;6.87;2.70;;;9.00;3.70;;;;;;5055501;28;20172;-85
2022/04/08 08:51:11;;;;;;;9.40;3.33;;;9.20;1.00;;;;;;5056847;28;20169;-88
2022/04/08 08:53:37;;;;;;;8.70;3.50;;;9.20;1.00;;;;;;5078957;28;20172;-80
2022/04/08 08:56:05;;;;;;;7.13;3.17;;;9.20;1.00;;;;;;5068863;28;20188;-78
2022/04/08 08:58:34;;;;;;;8.97;3.17;;;9.40;1.00;;;;;;5066217;28;20188;-80
2022/04/08 09:01:00;;;;;;;10.30;3.07;;;9.50;1.00;;;;;;5067440;28;20169;-76
2022/04/08 09:03:29;;;;;;;10.13;3.70;;;9.60;1.00;;;;;;5056405;28;20184;-80
2022/04/08 09:06:04;;;;;;;9.97;4.30;;;9.40;1.00;;;;;;5036869;28;20180;-85
2022/04/08 09:08:38;;;;;;;9.57;2.70;;;9.20;4.50;;;;;;5073338;28;20259;-77
2022/04/08 09:11:05;;;;;;;5.47;2.60;;;9.20;1.00;;;;;;5077784;28;20177;-87
2022/04/08 09:13:42;;;;;;;10.77;2.97;;;9.20;1.00;;;;;;5076934;28;20173;-77
2022/04/08 09:16:08;;;;;;;6.30;2.57;;;9.20;1.00;;;;;;5079050;28;20180;-85
2022/04/08 09:18:37;;;;;;;14.57;3.53;;;9.40;1.00;;;;;;5079115;28;20243;-84
2022/04/08 09:21:03;;;;;;;12.10;3.37;;;9.10;2.40;;;;;;5071565;28;20169;-79
2022/04/08 09:23:31;;;;;;;6.70;2.67;;;9.10;8.70;;;;;;5088843;28;20190;-77
2022/04/08 09:26:07;;;;;;;10.03;3.03;;;9.10;2.70;;;;;;5093000;28;20180;-75
2022/04/08 09:28:40;;;;;;;10.13;3.07;;;9.00;6.30;;;;;;5096452;28;20176;-78
2022/04/08 09:31:14;;;;;;;9.43;3.50;;;9.10;4.60;;;;;;5084063;28;20218;-79
2022/04/08 09:33:55;;;;;;;7.57;3.10;;;9.20;3.70;;;;;;5050529;28;20597;-84
2022/04/08 09:36:28;;;;;;;9.23;2.70;;;9.40;1.00;;;;;;5064846;28;20189;-82
2022/04/08 09:38:54;;;;;;;13.83;3.80;;;9.40;1.00;;;;;;5059747;28;20172;-83
2022/04/08 09:41:19;;;;;;;6.83;2.90;;;9.20;1.00;;;;;;5059380;28;20165;-77
2022/04/08 09:43:45;;;;;;;9.00;2.83;;;9.40;1.00;;;;;;5077287;28;20192;-85
2022/04/08 09:46:15;;;;;;;12.77;2.70;;;9.40;1.00;;;;;;5068859;28;20161;-78
2022/04/08 09:48:55;;;;;;;7.90;2.63;;;9.50;1.00;;;;;;5061615;28;20158;-85
2022/04/08 09:51:28;;;;;;;8.37;2.67;;;9.70;1.00;;;;;;5059361;28;20250;-85
2022/04/08 09:53:59;;;;;;;8.90;2.40;;;9.70;1.00;;;;;;5064238;28;20165;-78
2022/04/08 09:56:27;;;;;;;8.83;2.90;;;9.70;1.00;;;;;;5069853;28;20245;-76
2022/04/08 09:59:16;;;;;;;13.77;2.70;;;9.50;1.00;;;;;;5064874;28;20173;-78
2022/04/08 10:01:44;;;;;;;9.90;2.60;;;9.60;1.00;;;;;;5062489;28;20161;-77
2022/04/08 10:04:11;;;;;;;8.20;2.27;;;9.70;1.00;;;;;;5061085;28;20197;-87
2022/04/08 10:06:42;;;;;;;7.97;2.70;;;9.60;1.00;;;;;;5054404;28;20263;-78
2022/04/08 10:09:10;;;;;;;9.00;2.70;;;9.60;1.00;;;;;;5080768;28;20168;-76
2022/04/08 10:12:15;;;;;;;7.60;2.77;;;9.50;1.00;;;;;;5084735;28;20172;-82
2022/04/08 10:15:03;;;;;;;6.80;2.70;;;9.70;1.00;;;;;;5079574;28;20192;-83
2022/04/08 10:17:28;;;;;;;11.37;3.23;;;9.50;1.00;;;;;;5063427;28;20168;-80
2022/04/08 10:20:04;;;;;;;7.33;2.50;;;9.40;1.00;;;;;;5080191;28;20176;-83
2022/04/08 10:22:41;;;;;;;6.43;2.80;;;9.40;1.00;;;;;;5070597;28;20216;-80
2022/04/08 10:25:14;;;;;;;6.20;2.70;;;9.60;1.00;;;;;;5071211;28;20229;-87
2022/04/08 10:27:41;;;;;;;7.93;2.43;;;9.80;1.00;;;;;;5076796;28;20757;-86
2022/04/08 10:30:21;;;;;;;8.47;2.80;;;10.00;1.00;;;;;;5078309;28;20564;-78
2022/04/08 10:32:57;;;;;;;13.53;3.30;;;9.90;1.00;;;;;;5077900;28;20152;-86
2022/04/08 10:35:23;;;;;;;8.63;3.13;;;9.80;1.00;;;;;;5055382;28;20187;-77
2022/04/08 10:37:59;;;;;;;8.07;2.83;;;9.90;1.00;;;;;;5055371;28;20168;-78
2022/04/08 10:40:41;;;;;;;6.80;2.43;;;9.90;1.00;;;;;;5068035;28;20164;-80
2022/04/08 10:43:11;;;;;;;9.00;2.70;;;9.90;1.00;;;;;;5076608;28;20839;-79
2022/04/08 10:45:38;;;;;;;10.57;2.63;;;10.10;1.00;;;;;;5078822;28;20215;-84
2022/04/08 10:48:10;;;;;;;6.13;1.80;;;10.10;1.00;;;;;;5073111;28;20192;-75
2022/04/08 10:50:39;;;;;;;6.80;2.17;;;10.10;1.00;;;;;;5087633;28;20193;-78
2022/04/08 10:53:09;;;;;;;4.77;2.17;;;9.90;1.00;;;;;;5090341;28;20164;-79
2022/04/08 10:55:45;;;;;;;6.13;2.10;;;9.90;1.00;;;;;;5090923;28;20172;-82
2022/04/08 10:58:11;;;;;;;5.63;2.13;;;10.00;1.00;;;;;;5095719;28;20236;-78
2022/04/08 11:00:44;;;;;;;7.63;2.50;;;10.00;1.00;;;;;;5091925;28;20187;-80
2022/04/08 11:03:29;;;;;;;6.40;2.43;;;10.00;1.00;;;;;;5094560;28;20161;-80
2022/04/08 11:06:04;;;;;;;8.97;2.33;;;9.90;1.00;;;;;;5091795;28;20169;-80
2022/04/08 11:08:41;;;;;;;10.00;2.73;;;10.10;1.00;;;;;;5088116;28;20187;-81
2022/04/08 11:11:27;;;;;;;6.33;1.90;;;10.10;1.00;;;;;;5086770;28;20217;-81
2022/04/08 11:14:18;;;;;;;6.63;2.50;;;10.10;1.00;;;;;;5091629;28;20260;-78
2022/04/08 11:16:47;;;;;;;7.77;2.60;;;10.20;1.00;;;;;;5089786;28;20164;-78
2022/04/08 11:19:22;;;;;;;4.60;2.33;;;10.30;1.00;;;;;;5054950;28;20180;-78
2022/04/08 11:21:51;;;;;;;9.03;2.87;;;10.50;1.00;;;;;;5071641;28;20151;-77
2022/04/08 11:24:18;;;;;;;8.87;2.60;;;10.60;1.00;;;;;;5071223;28;20196;-77
2022/04/08 11:26:51;;;;;;;8.37;2.47;;;10.70;1.00;;;;;;5081051;28;20184;-77
2022/04/08 11:29:19;;;;;;;7.87;2.57;;;10.80;1.00;;;;;;5087547;28;20176;-79
2022/04/08 11:31:50;;;;;;;9.97;2.77;;;10.90;1.00;;;;;;5085111;28;20149;-80
2022/04/08 11:34:23;;;;;;;6.77;2.23;;;11.00;1.00;;;;;;5083365;28;20163;-80
2022/04/08 11:36:54;;;;;;;9.60;2.90;;;11.10;1.00;;;;;;5080774;28;20197;-79
2022/04/08 11:39:24;;;;;;;5.87;2.33;;;11.10;1.00;;;;;;5081023;28;20164;-83
2022/04/08 11:41:54;;;;;;;7.17;2.13;;;11.20;1.00;;;;;;5097808;28;20198;-78
2022/04/08 11:44:22;;;;;;;6.77;2.27;;;11.20;1.00;;;;;;5065237;28;20200;-82
2022/04/08 11:46:48;;;;;;;6.90;2.67;;;11.30;99.90;;;;;;5072590;28;20168;-84
2022/04/08 11:49:15;;;;;;;7.47;2.63;;;11.60;99.90;;;;;;5072311;28;20184;-78
2022/04/08 11:51:45;;;;;;;7.87;2.97;;;11.50;99.90;;;;;;5057973;28;20633;-79
2022/04/08 11:54:11;;;;;;;7.57;2.87;;;11.60;99.90;;;;;;5073367;28;20180;-78
2022/04/08 11:56:37;;;;;;;7.40;2.90;;;11.40;99.90;;;;;;5060662;28;20195;-80
2022/04/08 11:59:05;;;;;;;7.37;2.70;;;11.20;99.90;;;;;;5089213;28;20195;-77
2022/04/08 12:01:39;;;;;;;6.20;2.30;;;10.90;1.00;;;;;;5081404;28;20165;-78
2022/04/08 12:04:10;;;;;;;5.17;1.60;;;10.60;1.00;;;;;;5082051;28;20188;-78
2022/04/08 12:06:44;;;;;;;4.33;1.80;;;10.40;1.00;;;;;;5081016;28;20172;-78
2022/04/08 12:09:11;;;;;;;4.93;1.60;;;10.40;99.90;;;;;;5064490;28;20172;-86
2022/04/08 12:11:39;;;;;;;7.80;1.60;;;10.20;99.90;;;;;;5061519;28;20172;-84
2022/04/08 12:14:08;;;;;;;6.17;2.03;;;10.30;99.90;;;;;;5079737;28;20231;-79
2022/04/08 12:16:34;;;;;;;4.57;1.90;;;10.20;1.00;;;;;;5084815;28;20149;-87
2022/04/08 12:19:02;;;;;;;6.13;2.30;;;10.00;1.00;;;;;;5057668;28;20191;-81
2022/04/08 12:21:29;;;;;;;9.57;2.17;;;9.90;99.90;;;;;;5063307;28;20168;-79
2022/04/08 12:23:57;;;;;;;5.80;2.07;;;9.90;1.00;;;;;;5062622;28;20204;-82
2022/04/08 12:26:33;;;;;;;7.03;2.03;;;10.40;1.00;;;;;;5063694;28;20184;-79
2022/04/08 12:29:17;;;;;;;4.27;2.07;;;10.50;1.00;;;;;;5063677;28;20157;-78
2022/04/08 12:31:55;;;;;;;5.03;2.10;;;10.80;99.90;;;;;;5067864;28;20157;-80
2022/04/08 12:34:33;;;;;;;7.70;2.50;;;10.90;1.00;;;;;;5059846;28;20187;-77
2022/04/08 12:37:04;;;;;;;5.27;2.07;;;10.80;1.00;;;;;;5056039;28;20203;-79
2022/04/08 12:39:30;;;;;;;8.07;2.10;;;10.90;80.30;;;;;;5057027;28;20165;-87
2022/04/08 12:42:00;;;;;;;7.50;2.07;;;10.90;1.00;;;;;;5057319;28;20161;-84
2022/04/08 12:44:27;;;;;;;5.60;2.00;;;11.00;1.00;;;;;;5056097;28;20254;-88
2022/04/08 12:46:56;;;;;;;5.40;2.00;;;10.40;1.00;;;;;;5073051;28;20203;-89
2022/04/08 12:49:23;;;;;;;7.23;2.50;;;10.20;99.90;;;;;;5066707;28;20175;-91
2022/04/08 12:51:50;;;;;;;5.00;2.17;;;10.10;1.00;;;;;;5062111;28;20197;-79
2022/04/08 12:54:16;;;;;;;5.90;2.17;;;10.30;99.90;;;;;;5076568;28;20515;-79
2022/04/08 12:56:42;;;;;;;8.47;2.50;;;10.20;1.00;;;;;;5078224;28;20199;-79
2022/04/08 12:59:08;;;;;;;3.90;2.10;;;9.90;99.90;;;;;;5055056;28;20181;-91
2022/04/08 13:01:34;;;;;;;6.70;2.30;;;10.10;36.50;;;;;;5070239;28;20168;-79
2022/04/08 13:04:04;;;;;;;5.57;2.17;;;10.00;99.90;;;;;;5065605;28;20184;-86
2022/04/08 13:06:30;;;;;;;7.33;2.33;;;9.90;1.00;;;;;;5068011;28;20256;-84
2022/04/08 13:08:58;;;;;;;5.23;1.90;;;9.90;99.90;;;;;;5070941;28;20160;-84